createdAt,value
2017-09-07T00:02:12.538Z,16.76
2017-09-07T00:04:40.114Z,16.64
2017-09-07T00:07:07.967Z,16.66
2017-09-07T00:09:35.516Z,16.57
2017-09-07T00:12:03.158Z,16.61
2017-09-07T00:14:30.753Z,16.73
2017-09-07T00:16:58.308Z,16.71
2017-09-07T00:19:25.881Z,16.85
2017-09-07T00:21:54.258Z,16.68
2017-09-07T00:24:21.799Z,16.67
2017-09-07T00:26:49.567Z,16.71
2017-09-07T00:29:17.320Z,16.79
2017-09-07T00:31:44.891Z,16.73
2017-09-07T00:34:12.414Z,16.71
2017-09-07T00:36:40.021Z,16.66
2017-09-07T00:39:08.441Z,16.56
2017-09-07T00:41:36.127Z,16.66
2017-09-07T00:44:04.471Z,16.78
2017-09-07T00:46:32.953Z,16.71
2017-09-07T00:49:00.625Z,16.73
2017-09-07T00:51:29.162Z,16.62
2017-09-07T00:53:56.824Z,16.53
2017-09-07T00:56:24.351Z,16.55
2017-09-07T00:58:51.979Z,16.45
2017-09-07T01:01:19.573Z,16.38
2017-09-07T01:03:47.127Z,16.40
2017-09-07T01:06:14.637Z,16.30
2017-09-07T01:08:42.250Z,16.40
2017-09-07T01:11:09.800Z,16.37
2017-09-07T01:13:37.329Z,16.17
2017-09-07T01:16:04.918Z,15.93
2017-09-07T01:18:32.485Z,15.96
2017-09-07T01:21:00.775Z,16.14
2017-09-07T01:23:29.201Z,16.25
2017-09-07T01:25:56.748Z,16.26
2017-09-07T01:28:24.507Z,16.13
2017-09-07T01:30:52.420Z,15.86
2017-09-07T01:33:19.990Z,15.87
2017-09-07T01:35:47.800Z,15.93
2017-09-07T01:38:15.371Z,15.85
2017-09-07T01:40:43.405Z,15.84
2017-09-07T01:43:10.979Z,15.78
2017-09-07T01:45:39.357Z,15.83
2017-09-07T01:51:49.011Z,15.78
2017-09-07T01:54:16.567Z,15.63
2017-09-07T01:56:45.212Z,15.76
2017-09-07T01:59:12.818Z,15.72
2017-09-07T02:01:40.396Z,15.75
2017-09-07T02:04:07.913Z,15.54
2017-09-07T02:06:35.508Z,15.47
2017-09-07T02:09:03.153Z,15.41
2017-09-07T02:11:30.675Z,15.41
2017-09-07T02:13:58.421Z,15.36
2017-09-07T02:16:26.200Z,15.31
2017-09-07T02:18:54.172Z,15.58
2017-09-07T02:21:21.736Z,15.48
2017-09-07T02:23:49.340Z,15.28
2017-09-07T02:26:16.897Z,14.99
2017-09-07T02:28:44.459Z,15.14
2017-09-07T02:31:12.030Z,15.20
2017-09-07T02:33:39.587Z,14.93
2017-09-07T02:36:07.218Z,14.95
2017-09-07T02:38:34.792Z,14.83
2017-09-07T02:41:02.350Z,15.07
2017-09-07T02:43:29.870Z,15.05
2017-09-07T02:45:57.441Z,15.22
2017-09-07T02:48:24.982Z,15.06
2017-09-07T02:50:52.745Z,15.09
2017-09-07T02:53:20.320Z,15.12
2017-09-07T02:55:48.132Z,15.13
2017-09-07T02:58:15.868Z,15.22
2017-09-07T03:00:44.331Z,15.30
2017-09-07T03:03:11.894Z,15.35
2017-09-07T03:05:39.423Z,15.16
2017-09-07T03:08:06.970Z,14.99
2017-09-07T03:10:34.486Z,15.04
2017-09-07T03:13:02.046Z,14.98
2017-09-07T03:15:29.626Z,15.03
2017-09-07T03:17:57.148Z,14.98
2017-09-07T03:20:24.658Z,14.95
2017-09-07T03:22:52.231Z,15.03
2017-09-07T03:25:19.778Z,14.85
2017-09-07T03:27:47.544Z,14.72
2017-09-07T03:30:15.247Z,14.74
2017-09-07T03:32:42.780Z,14.78
2017-09-07T03:35:10.293Z,15.00
2017-09-07T03:37:37.856Z,15.01
2017-09-07T03:40:05.428Z,14.97
2017-09-07T03:42:33.206Z,15.04
2017-09-07T03:45:00.795Z,15.04
2017-09-07T03:47:28.332Z,15.16
2017-09-07T03:49:55.855Z,15.13
2017-09-07T03:52:23.494Z,15.18
2017-09-07T03:54:51.020Z,14.89
2017-09-07T03:57:18.769Z,14.76
2017-09-07T03:59:46.333Z,14.66
2017-09-07T04:02:13.947Z,14.69
2017-09-07T04:04:41.458Z,14.85
2017-09-07T04:07:08.981Z,14.60
2017-09-07T04:09:36.517Z,14.63
2017-09-07T04:12:04.258Z,14.63
2017-09-07T04:14:31.809Z,14.66
2017-09-07T04:16:59.362Z,14.65
2017-09-07T04:19:26.873Z,14.74
2017-09-07T04:21:54.472Z,14.89
2017-09-07T04:24:22.061Z,14.84
2017-09-07T04:26:49.589Z,15.03
2017-09-07T04:29:17.110Z,15.26
2017-09-07T04:31:44.897Z,16.53
2017-09-07T04:34:12.393Z,18.09
2017-09-07T04:36:39.888Z,18.82
2017-09-07T04:39:07.437Z,19.62
2017-09-07T04:41:34.950Z,20.47
2017-09-07T04:44:02.496Z,20.86
2017-09-07T04:46:30.065Z,21.28
2017-09-07T04:48:57.569Z,21.73
2017-09-07T04:51:25.111Z,21.01
2017-09-07T04:53:52.669Z,20.78
2017-09-07T04:56:20.195Z,20.85
2017-09-07T04:58:47.704Z,20.76
2017-09-07T05:01:15.600Z,21.16
2017-09-07T05:03:43.129Z,21.34
2017-09-07T05:06:10.660Z,21.49
2017-09-07T05:08:38.272Z,22.04
2017-09-07T05:11:05.791Z,21.76
2017-09-07T05:13:33.322Z,21.94
2017-09-07T05:16:00.925Z,22.09
2017-09-07T05:18:28.446Z,22.29
2017-09-07T05:20:55.971Z,22.42
2017-09-07T05:23:23.562Z,22.69
2017-09-07T05:25:51.080Z,22.49
2017-09-07T05:28:18.832Z,23.19
2017-09-07T05:30:46.405Z,23.05
2017-09-07T05:33:13.936Z,23.39
2017-09-07T05:35:41.449Z,23.27
2017-09-07T05:38:08.981Z,23.53
2017-09-07T05:40:36.537Z,23.72
2017-09-07T05:43:04.085Z,24.08
2017-09-07T05:45:31.667Z,23.77
2017-09-07T05:47:59.203Z,23.96
2017-09-07T05:50:26.731Z,24.17
2017-09-07T05:52:54.308Z,24.31
2017-09-07T05:55:22.129Z,24.43
2017-09-07T05:57:49.644Z,24.50
2017-09-07T06:00:17.349Z,24.67
2017-09-07T06:02:44.864Z,25.11
2017-09-07T06:05:12.423Z,24.95
2017-09-07T06:07:39.996Z,25.04
2017-09-07T06:10:07.523Z,25.34
2017-09-07T06:12:35.044Z,25.60
2017-09-07T06:15:02.631Z,25.07
2017-09-07T06:17:30.469Z,24.94
2017-09-07T06:19:58.036Z,24.39
2017-09-07T06:22:25.573Z,24.95
2017-09-07T06:24:53.109Z,25.12
2017-09-07T06:27:20.643Z,25.99
2017-09-07T06:29:48.181Z,26.65
2017-09-07T06:32:15.783Z,24.90
2017-09-07T06:34:43.321Z,25.31
2017-09-07T06:37:10.862Z,26.32
2017-09-07T06:39:38.429Z,25.60
2017-09-07T06:42:05.978Z,26.59
2017-09-07T06:44:33.492Z,25.56
2017-09-07T06:47:01.286Z,26.52
2017-09-07T06:49:28.785Z,27.01
2017-09-07T06:51:56.307Z,27.01
2017-09-07T06:54:23.866Z,27.65
2017-09-07T06:56:51.417Z,27.62
2017-09-07T06:59:18.930Z,27.71
2017-09-07T07:01:46.533Z,27.10
2017-09-07T07:04:14.089Z,27.55
2017-09-07T07:06:41.619Z,28.00
2017-09-07T07:09:09.814Z,29.02
2017-09-07T07:11:37.681Z,28.34
2017-09-07T07:14:05.227Z,27.98
2017-09-07T07:16:32.794Z,28.63
2017-09-07T07:19:00.307Z,28.60
2017-09-07T07:21:27.832Z,28.14
2017-09-07T07:23:55.441Z,28.37
2017-09-07T07:26:23.179Z,28.12
2017-09-07T07:28:50.732Z,28.04
2017-09-07T07:31:18.276Z,28.58
2017-09-07T07:33:46.620Z,27.88
2017-09-07T07:36:14.442Z,28.42
2017-09-07T07:38:42.066Z,28.88
2017-09-07T07:41:09.612Z,28.18
2017-09-07T07:43:37.130Z,28.54
2017-09-07T07:46:04.691Z,28.51
2017-09-07T07:48:32.212Z,28.94
2017-09-07T07:50:59.766Z,29.51
2017-09-07T07:53:27.345Z,29.42
2017-09-07T07:55:54.898Z,29.56
2017-09-07T07:58:22.405Z,30.00
2017-09-07T08:00:49.961Z,30.21
2017-09-07T08:03:17.817Z,29.86
2017-09-07T08:05:45.325Z,29.63
2017-09-07T08:08:12.860Z,29.76
2017-09-07T08:10:40.404Z,30.37
2017-09-07T08:13:07.933Z,30.56
2017-09-07T08:15:35.477Z,30.46
2017-09-07T08:18:03.373Z,30.43
2017-09-07T08:20:30.925Z,30.08
2017-09-07T08:22:58.494Z,30.37
2017-09-07T08:25:26.006Z,30.09
2017-09-07T08:27:53.544Z,30.72
2017-09-07T08:30:21.131Z,30.84
2017-09-07T08:32:48.644Z,30.77
2017-09-07T08:35:16.171Z,30.78
2017-09-07T08:37:44.010Z,31.19
2017-09-07T08:40:11.532Z,30.65
2017-09-07T08:42:39.043Z,30.89
2017-09-07T08:45:06.627Z,30.61
2017-09-07T08:47:34.194Z,30.14
2017-09-07T08:50:01.730Z,29.66
2017-09-07T08:52:29.302Z,29.52
2017-09-07T08:54:57.135Z,29.51
2017-09-07T08:57:24.671Z,29.20
2017-09-07T08:59:52.227Z,30.06
2017-09-07T09:02:19.812Z,30.04
2017-09-07T09:04:47.475Z,30.10
2017-09-07T09:07:14.992Z,30.53
2017-09-07T09:09:42.553Z,30.03
2017-09-07T09:12:10.100Z,30.50
2017-09-07T09:14:37.671Z,31.55
2017-09-07T09:17:05.221Z,31.75
2017-09-07T09:19:32.818Z,32.18
2017-09-07T09:22:00.356Z,32.15
2017-09-07T09:24:28.179Z,32.35
2017-09-07T09:26:55.702Z,32.09
2017-09-07T09:29:23.264Z,32.02
2017-09-07T09:31:50.849Z,31.60
2017-09-07T09:34:18.424Z,31.86
2017-09-07T09:36:45.925Z,31.84
2017-09-07T09:39:13.586Z,32.45
2017-09-07T09:41:41.182Z,32.65
2017-09-07T09:44:08.700Z,33.02
2017-09-07T09:46:36.302Z,32.54
2017-09-07T09:49:04.223Z,32.39
2017-09-07T09:51:31.763Z,32.72
2017-09-07T09:53:59.353Z,32.43
2017-09-07T09:56:27.109Z,32.90
2017-09-07T09:58:55.041Z,33.11
2017-09-07T10:01:22.660Z,33.07
2017-09-07T10:03:50.222Z,33.43
2017-09-07T10:06:17.759Z,33.43
2017-09-07T10:08:45.310Z,33.48
2017-09-07T10:11:12.824Z,33.74
2017-09-07T10:13:40.325Z,33.58
2017-09-07T10:16:07.891Z,33.09
2017-09-07T10:18:35.463Z,33.14
2017-09-07T10:21:02.997Z,33.47
2017-09-07T10:23:30.567Z,33.83
2017-09-07T10:25:58.166Z,33.75
2017-09-07T10:28:25.939Z,33.55
2017-09-07T10:30:53.513Z,33.01
2017-09-07T10:33:21.026Z,32.71
2017-09-07T10:35:48.579Z,31.95
2017-09-07T10:38:16.173Z,32.18
2017-09-07T10:40:43.678Z,32.45
2017-09-07T10:43:11.216Z,32.35
2017-09-07T10:45:38.786Z,32.09
2017-09-07T10:48:06.303Z,32.31
2017-09-07T10:50:34.038Z,32.63
2017-09-07T10:53:01.650Z,32.80
2017-09-07T10:55:29.242Z,32.68
2017-09-07T10:57:56.762Z,32.74
2017-09-07T11:00:24.319Z,32.97
2017-09-07T11:02:51.826Z,33.08
2017-09-07T11:05:19.347Z,32.97
2017-09-07T11:07:46.940Z,33.25
2017-09-07T11:10:14.500Z,32.59
2017-09-07T11:12:42.116Z,31.75
2017-09-07T11:15:09.670Z,31.40
2017-09-07T11:17:37.178Z,31.73
2017-09-07T11:20:04.738Z,30.87
2017-09-07T11:22:32.294Z,30.20
2017-09-07T11:24:59.818Z,29.75
2017-09-07T11:27:27.615Z,29.92
2017-09-07T11:29:55.170Z,29.75
2017-09-07T11:32:22.754Z,29.90
2017-09-07T11:34:50.500Z,30.36
2017-09-07T11:37:18.035Z,30.58
2017-09-07T11:39:45.582Z,31.13
2017-09-07T11:42:13.125Z,31.44
2017-09-07T11:44:40.665Z,31.76
2017-09-07T11:47:08.237Z,31.99
2017-09-07T11:49:35.796Z,31.90
2017-09-07T11:52:03.686Z,31.82
2017-09-07T11:54:31.269Z,31.95
2017-09-07T11:56:58.823Z,32.08
2017-09-07T11:59:26.338Z,31.82
2017-09-07T12:01:53.947Z,31.61
2017-09-07T12:04:21.746Z,31.78
2017-09-07T12:06:49.918Z,31.98
2017-09-07T12:09:17.760Z,31.68
2017-09-07T12:11:45.319Z,30.99
2017-09-07T12:14:12.824Z,30.95
2017-09-07T12:16:40.377Z,31.20
2017-09-07T12:19:07.930Z,31.48
2017-09-07T12:21:35.676Z,31.14
2017-09-07T12:24:03.322Z,31.14
2017-09-07T12:26:30.852Z,31.27
2017-09-07T12:28:58.359Z,31.37
2017-09-07T12:31:25.922Z,31.53
2017-09-07T12:33:53.440Z,31.34
2017-09-07T12:36:21.007Z,31.64
2017-09-07T12:38:48.662Z,31.53
2017-09-07T12:41:16.194Z,31.69
2017-09-07T12:43:43.722Z,31.76
2017-09-07T12:46:11.306Z,31.30
2017-09-07T12:48:38.813Z,30.92
2017-09-07T12:51:06.318Z,31.08
2017-09-07T12:53:33.871Z,30.67
2017-09-07T12:56:01.375Z,30.93
2017-09-07T12:58:28.881Z,30.91
2017-09-07T13:00:56.420Z,30.77
2017-09-07T13:03:23.926Z,30.63
2017-09-07T13:05:51.731Z,30.35
2017-09-07T13:08:19.603Z,30.62
2017-09-07T13:10:47.154Z,30.88
2017-09-07T13:13:14.910Z,30.85
2017-09-07T13:15:42.502Z,30.76
2017-09-07T13:18:10.307Z,30.56
2017-09-07T13:20:38.758Z,30.60
2017-09-07T13:23:06.318Z,30.54
2017-09-07T13:25:33.816Z,30.68
2017-09-07T13:28:01.396Z,30.80
2017-09-07T13:30:28.966Z,30.71
2017-09-07T13:32:56.474Z,30.69
2017-09-07T13:35:24.036Z,30.30
2017-09-07T13:37:51.683Z,30.24
2017-09-07T13:40:19.925Z,30.32
2017-09-07T13:42:47.515Z,30.31
2017-09-07T13:45:15.573Z,30.05
2017-09-07T13:47:43.076Z,30.00
2017-09-07T13:50:10.870Z,30.11
2017-09-07T13:52:38.421Z,30.16
2017-09-07T13:55:06.022Z,30.10
2017-09-07T13:57:33.816Z,29.98
2017-09-07T14:00:01.362Z,29.88
2017-09-07T14:02:28.914Z,29.83
2017-09-07T14:04:56.458Z,29.91
2017-09-07T14:07:23.973Z,29.85
2017-09-07T14:09:51.515Z,29.99
2017-09-07T14:12:19.021Z,29.85
2017-09-07T14:14:46.610Z,29.90
2017-09-07T14:17:14.178Z,29.88
2017-09-07T14:19:41.705Z,29.47
2017-09-07T14:22:09.294Z,29.36
2017-09-07T14:24:37.084Z,29.53
2017-09-07T14:27:04.609Z,29.47
2017-09-07T14:29:32.110Z,29.49
2017-09-07T14:31:59.682Z,29.29
2017-09-07T14:34:27.206Z,29.26
2017-09-07T14:36:55.033Z,29.22
2017-09-07T14:39:22.578Z,29.26
2017-09-07T14:41:50.153Z,29.29
2017-09-07T14:44:17.668Z,29.26
2017-09-07T14:46:45.438Z,29.32
2017-09-07T14:49:13.181Z,29.22
2017-09-07T14:51:41.005Z,29.14
2017-09-07T14:54:08.594Z,29.13
2017-09-07T14:56:36.097Z,28.98
2017-09-07T14:59:03.631Z,28.97
2017-09-07T15:01:31.214Z,28.96
2017-09-07T15:03:58.762Z,29.01
2017-09-07T15:06:26.328Z,28.98
2017-09-07T15:08:53.864Z,28.98
2017-09-07T15:11:21.366Z,28.92
2017-09-07T15:13:48.862Z,28.80
2017-09-07T15:16:16.631Z,28.71
2017-09-07T15:18:44.363Z,28.69
2017-09-07T15:21:12.239Z,28.55
2017-09-07T15:23:39.837Z,28.63
2017-09-07T15:26:07.356Z,28.54
2017-09-07T15:28:35.132Z,28.57
2017-09-07T15:31:02.748Z,28.54
2017-09-07T15:33:30.277Z,28.49
2017-09-07T15:35:57.818Z,28.39
2017-09-07T15:38:25.372Z,28.35
2017-09-07T15:40:53.251Z,28.34
2017-09-07T15:43:20.830Z,28.36
2017-09-07T15:45:48.421Z,28.19
2017-09-07T15:48:15.970Z,28.15
2017-09-07T15:50:43.519Z,28.11
2017-09-07T15:53:11.110Z,28.06
2017-09-07T15:55:38.649Z,28.10
2017-09-07T15:58:06.284Z,28.07
2017-09-07T16:00:33.920Z,27.96
2017-09-07T16:03:01.457Z,27.82
2017-09-07T16:05:29.182Z,27.74
2017-09-07T16:07:56.963Z,27.60
2017-09-07T16:10:24.518Z,27.63
2017-09-07T16:12:52.019Z,27.57
2017-09-07T16:15:19.573Z,27.51
2017-09-07T16:17:47.081Z,27.52
2017-09-07T16:20:14.586Z,27.43
2017-09-07T16:22:42.522Z,27.41
2017-09-07T16:25:10.298Z,27.42
2017-09-07T16:27:37.798Z,27.37
2017-09-07T16:30:06.546Z,27.30
2017-09-07T16:32:34.064Z,27.21
2017-09-07T16:35:01.581Z,27.14
2017-09-07T16:37:29.167Z,27.00
2017-09-07T16:39:56.718Z,26.82
2017-09-07T16:42:24.233Z,26.78
2017-09-07T16:44:51.791Z,26.81
2017-09-07T16:47:19.290Z,26.78
2017-09-07T16:49:47.097Z,26.80
2017-09-07T16:52:14.684Z,26.74
2017-09-07T16:54:42.275Z,26.70
2017-09-07T16:57:09.817Z,26.62
2017-09-07T16:59:37.422Z,26.51
2017-09-07T17:02:04.955Z,26.45
2017-09-07T17:04:32.519Z,26.39
2017-09-07T17:07:00.116Z,26.30
2017-09-07T17:09:27.728Z,26.07
2017-09-07T17:11:55.247Z,26.04
2017-09-07T17:14:22.769Z,25.98
2017-09-07T17:16:50.349Z,25.90
2017-09-07T17:19:17.859Z,25.82
2017-09-07T17:21:45.439Z,25.77
2017-09-07T17:24:13.054Z,25.52
2017-09-07T17:26:40.579Z,25.33
2017-09-07T17:29:08.154Z,25.11
2017-09-07T17:31:35.709Z,25.14
2017-09-07T17:34:03.295Z,25.36
2017-09-07T17:36:38.467Z,25.32
2017-09-07T17:39:06.009Z,25.24
2017-09-07T17:41:33.545Z,25.32
2017-09-07T17:44:01.121Z,25.35
2017-09-07T17:46:28.703Z,25.41
2017-09-07T17:48:56.258Z,25.30
2017-09-07T17:51:23.809Z,25.36
2017-09-07T17:53:51.571Z,25.48
2017-09-07T17:56:19.099Z,25.39
2017-09-07T17:58:46.692Z,24.99
2017-09-07T18:01:14.435Z,24.74
2017-09-07T18:03:41.983Z,24.52
2017-09-07T18:06:09.521Z,24.62
2017-09-07T18:08:37.831Z,24.73
2017-09-07T18:11:05.578Z,24.95
2017-09-07T18:13:34.122Z,24.91
2017-09-07T18:16:01.717Z,24.72
2017-09-07T18:18:29.310Z,24.60
2017-09-07T18:20:56.986Z,24.73
2017-09-07T18:23:24.655Z,24.70
2017-09-07T18:25:52.471Z,24.68
2017-09-07T18:28:20.191Z,24.74
2017-09-07T18:30:47.807Z,24.67
2017-09-07T18:33:15.383Z,24.70
2017-09-07T18:35:43.143Z,24.73
2017-09-07T18:38:10.747Z,24.72
2017-09-07T18:40:38.370Z,24.61
2017-09-07T18:43:05.916Z,24.55
2017-09-07T18:45:34.315Z,24.60
2017-09-07T18:48:02.129Z,24.49
2017-09-07T18:50:29.867Z,24.63
2017-09-07T18:52:57.442Z,24.53
2017-09-07T18:55:25.219Z,24.28
2017-09-07T18:57:52.814Z,24.07
2017-09-07T19:00:20.516Z,23.99
2017-09-07T19:02:48.090Z,23.84
2017-09-07T19:05:15.670Z,23.79
2017-09-07T19:07:43.315Z,23.76
2017-09-07T19:10:10.849Z,23.70
2017-09-07T19:12:38.417Z,23.65
2017-09-07T19:15:06.014Z,23.61
2017-09-07T19:17:33.574Z,23.54
2017-09-07T19:20:01.173Z,23.66
2017-09-07T19:22:28.805Z,23.56
2017-09-07T19:24:56.397Z,23.44
2017-09-07T19:27:24.142Z,23.38
2017-09-07T19:29:51.746Z,23.39
2017-09-07T19:32:19.322Z,23.37
2017-09-07T19:34:46.861Z,23.26
2017-09-07T19:37:14.616Z,23.27
2017-09-07T19:39:42.182Z,23.01
2017-09-07T19:42:15.779Z,22.91
2017-09-07T19:44:43.603Z,22.82
2017-09-07T19:47:11.197Z,22.75
2017-09-07T19:49:38.736Z,22.78
2017-09-07T19:52:06.335Z,22.74
2017-09-07T19:54:33.880Z,22.69
2017-09-07T19:57:01.546Z,22.77
2017-09-07T19:59:29.437Z,22.67
2017-09-07T20:01:58.066Z,22.57
2017-09-07T20:04:25.657Z,22.57
2017-09-07T20:06:54.163Z,22.53
2017-09-07T20:09:21.798Z,22.55
2017-09-07T20:11:49.345Z,22.23
2017-09-07T20:14:16.982Z,21.94
2017-09-07T20:16:44.643Z,22.10
2017-09-07T20:19:12.270Z,22.14
2017-09-07T20:21:39.875Z,22.28
2017-09-07T20:24:07.525Z,22.11
2017-09-07T20:26:35.114Z,22.25
2017-09-07T20:29:03.604Z,22.34
2017-09-07T20:31:31.760Z,22.41
2017-09-07T20:33:59.373Z,22.37
2017-09-07T20:36:26.935Z,22.30
2017-09-07T20:38:54.571Z,22.11
2017-09-07T20:41:22.623Z,22.15
2017-09-07T20:43:50.235Z,21.93
2017-09-07T20:46:17.847Z,22.15
2017-09-07T20:48:45.442Z,22.20
2017-09-07T20:51:13.003Z,22.22
2017-09-07T20:53:40.598Z,22.26
2017-09-07T20:56:08.166Z,22.26
2017-09-07T20:58:35.818Z,22.31
2017-09-07T21:01:03.477Z,22.27
2017-09-07T21:03:31.097Z,22.05
2017-09-07T21:05:58.664Z,21.92
2017-09-07T21:08:26.946Z,21.98
2017-09-07T21:10:54.595Z,21.88
2017-09-07T21:13:22.243Z,21.91
2017-09-07T21:15:49.815Z,21.98
2017-09-07T21:18:17.515Z,21.84
2017-09-07T21:20:45.188Z,21.82
2017-09-07T21:23:12.861Z,21.84
2017-09-07T21:25:40.479Z,22.01
2017-09-07T21:28:08.083Z,21.82
2017-09-07T21:30:35.742Z,21.77
2017-09-07T21:33:03.349Z,21.70
2017-09-07T21:35:30.933Z,21.68
2017-09-07T21:37:59.562Z,21.61
2017-09-07T21:40:28.193Z,21.65
2017-09-07T21:42:56.046Z,21.54
2017-09-07T21:45:23.742Z,21.60
2017-09-07T21:47:51.347Z,21.55
2017-09-07T21:50:20.509Z,21.40
2017-09-07T21:52:48.595Z,21.38
2017-09-07T21:55:16.150Z,21.31
2017-09-07T21:57:44.074Z,21.30
2017-09-07T22:00:11.758Z,21.30
2017-09-07T22:02:39.333Z,21.13
2017-09-07T22:05:07.171Z,21.04
2017-09-07T22:07:34.741Z,21.10
2017-09-07T22:10:02.668Z,20.98
2017-09-07T22:12:30.297Z,21.03
2017-09-07T22:14:57.889Z,20.96
2017-09-07T22:17:25.787Z,20.85
2017-09-07T22:19:53.970Z,20.87
2017-09-07T22:22:21.559Z,20.75
2017-09-07T22:24:49.103Z,20.77
2017-09-07T22:27:16.679Z,20.79
2017-09-07T22:29:44.282Z,20.69
2017-09-07T22:32:11.887Z,20.61
2017-09-07T22:34:39.485Z,20.66
2017-09-07T22:37:07.104Z,20.62
2017-09-07T22:39:35.487Z,20.64
2017-09-07T22:42:03.247Z,20.51
2017-09-07T22:44:31.025Z,20.50
2017-09-07T22:46:58.605Z,20.53
2017-09-07T22:49:26.368Z,20.44
2017-09-07T22:51:53.991Z,20.45
2017-09-07T22:54:21.601Z,20.45
2017-09-07T22:56:49.679Z,20.47
2017-09-07T22:59:17.726Z,20.48
2017-09-07T23:01:45.366Z,20.39
2017-09-07T23:04:12.952Z,20.37
2017-09-07T23:06:40.591Z,20.26
2017-09-07T23:09:08.186Z,20.28
2017-09-07T23:11:35.980Z,20.27
2017-09-07T23:14:03.555Z,20.28
2017-09-07T23:16:31.150Z,20.16
2017-09-07T23:18:58.705Z,20.10
2017-09-07T23:21:26.243Z,19.94
2017-09-07T23:23:53.871Z,19.75
2017-09-07T23:26:21.422Z,19.88
2017-09-07T23:28:49.037Z,20.01
2017-09-07T23:31:16.618Z,19.98
2017-09-07T23:33:44.196Z,19.96
2017-09-07T23:36:11.959Z,20.04
2017-09-07T23:38:39.550Z,20.03
2017-09-07T23:41:07.106Z,20.11
2017-09-07T23:43:34.706Z,20.03
2017-09-07T23:46:02.315Z,19.97
2017-09-07T23:48:29.934Z,19.93
2017-09-07T23:50:59.962Z,19.90
2017-09-07T23:53:27.584Z,19.80
2017-09-07T23:55:55.324Z,19.79
2017-09-07T23:58:23.151Z,19.71
